Albuquerque (West), New Mexico
Current Conditions -  °F | °C
As of 9:55 PM on Saturday 22 Nov 2014 (Local Time) from KAEG Reporting Station
Clear Clear  
Wind Chill: 37°   Ceiling: Unl
Heat Index: 42°   Visibility: 10mi
Dew Point: 13°   Wind: 7mph
Humidity: 31%   Direction: 190°S
Pressure: 29.85"   Gusts: NA
Location:  35.15°N, 106.8°W
Report Text: KAEG 230455Z AUTO 19006KT 10SM CLR 05/M11 A2985 RMK AO2 T00531108
Loading
Personal Weather Stations






























Interactive Weather Map New forecast layout! Learn more

10-Day Weather Forecast

Advertisements
Track Severe Weather on mobile